Terminal Aerodrome Forecast
Issued by NWS Knoxville/Tri Cities, TN

Home | Current Version | Previous Version | Text Only | Print | Product List | Glossary On
Versions: 1 2 3 4 5 6 7 8 9 10 11 12 13
000
FTUS44 KMRX 142320
TAFCHA
TAF
KCHA 142320Z 1500/1524 36005KT P6SM SCT150
     FM151100 34008KT P6SM SCT040 SCT150 BKN250
     FM151900 30007KT P6SM SCT250=

USA.gov is the U.S. government's official web portal to all federal, state and local government web resources and services.